Time;durP1;ratioP1;P1;durP2;ratioP2;P2;SDS_P1;SDS_P2;PMS_P1;PMS_P2;Temp;Humidity;BMP_temperature;BMP_pressure;BME280_temperature;BME280_humidity;BME280_pressure;Samples;Min_cycle;Max_cycle;Signal;HPM_P1;HPM_P2
2023/05/31 00:00:10;;;;;;;1.98;1.70;;;20.50;63.80;;;;;;5158413;27;45398;-69
2023/05/31 00:02:37;;;;;;;2.80;1.73;;;20.50;63.80;;;;;;5162655;27;46285;-68
2023/05/31 00:05:04;;;;;;;2.05;1.63;;;20.50;63.60;;;;;;5156137;27;45418;-68
2023/05/31 00:07:32;;;;;;;1.90;1.48;;;20.50;63.80;;;;;;5161747;27;45451;-68
2023/05/31 00:09:59;;;;;;;3.03;1.63;;;20.50;63.80;;;;;;5166876;27;45481;-68
2023/05/31 00:12:26;;;;;;;2.08;1.58;;;20.50;63.80;;;;;;5156288;27;45343;-69
2023/05/31 00:14:53;;;;;;;2.60;1.70;;;20.50;63.80;;;;;;5164521;27;45439;-69
2023/05/31 00:17:20;;;;;;;2.08;1.52;;;20.50;63.80;;;;;;5155578;27;45290;-68
2023/05/31 00:19:46;;;;;;;2.17;1.70;;;20.50;63.80;;;;;;5161000;27;45435;-68
2023/05/31 00:22:16;;;;;;;2.35;1.80;;;20.50;63.80;;;;;;5162569;27;48690;-69
2023/05/31 00:24:44;;;;;;;3.15;1.80;;;20.50;63.80;;;;;;5164810;27;45337;-68
2023/05/31 00:27:11;;;;;;;2.35;1.67;;;20.50;63.80;;;;;;5163548;27;45316;-69
2023/05/31 00:29:38;;;;;;;2.78;1.77;;;20.50;63.80;;;;;;5158665;27;45411;-68
2023/05/31 00:32:05;;;;;;;2.25;1.67;;;20.50;63.80;;;;;;5159072;27;46584;-69
2023/05/31 00:34:32;;;;;;;2.50;1.60;;;20.40;63.70;;;;;;5152892;27;45363;-68
2023/05/31 00:36:59;;;;;;;1.65;1.50;;;20.50;63.70;;;;;;5153046;27;45629;-68
2023/05/31 00:39:25;;;;;;;1.70;1.52;;;20.40;63.60;;;;;;5156370;27;45547;-68
2023/05/31 00:41:54;;;;;;;2.88;1.80;;;20.40;63.70;;;;;;5154449;27;46645;-68
2023/05/31 00:44:20;;;;;;;2.35;1.70;;;20.40;63.70;;;;;;5158826;27;45411;-68
2023/05/31 00:46:47;;;;;;;2.83;1.60;;;20.40;63.80;;;;;;5159263;27;45356;-68
2023/05/31 00:49:15;;;;;;;3.05;1.83;;;20.40;63.60;;;;;;5156557;27;45589;-68
2023/05/31 00:51:42;;;;;;;2.97;1.98;;;20.50;63.80;;;;;;5161261;27;46373;-69
2023/05/31 00:54:10;;;;;;;2.50;1.73;;;20.40;63.70;;;;;;5163521;27;45433;-68
2023/05/31 00:56:37;;;;;;;3.00;1.90;;;20.40;63.70;;;;;;5160260;27;45474;-68
2023/05/31 00:59:05;;;;;;;2.58;1.90;;;20.50;63.80;;;;;;5159381;27;45333;-68
2023/05/31 01:01:32;;;;;;;4.13;2.10;;;20.50;64.80;;;;;;5166924;27;46070;-69
2023/05/31 01:04:00;;;;;;;5.30;2.10;;;20.50;63.70;;;;;;5154160;27;45315;-68
2023/05/31 01:06:31;;;;;;;2.22;1.60;;;20.50;63.80;;;;;;5168767;27;45579;-69
2023/05/31 01:08:59;;;;;;;2.90;1.80;;;20.50;63.70;;;;;;5168717;27;45342;-68
2023/05/31 01:11:38;;;;;;;2.63;1.90;;;20.50;63.70;;;;;;5167945;27;48280;-68
2023/05/31 01:14:17;;;;;;;3.40;2.08;;;20.40;63.60;;;;;;5168795;27;45428;-68
2023/05/31 01:16:48;;;;;;;2.55;2.20;;;20.40;64.10;;;;;;5151555;27;45341;-68
2023/05/31 01:19:24;;;;;;;3.95;2.13;;;20.40;63.60;;;;;;5166546;27;45324;-68
2023/05/31 01:22:02;;;;;;;3.63;2.17;;;20.40;63.60;;;;;;5162807;27;45335;-69
2023/05/31 01:24:36;;;;;;;2.50;2.00;;;20.40;63.60;;;;;;5167986;27;45429;-69
2023/05/31 01:27:06;;;;;;;2.10;1.60;;;20.40;63.60;;;;;;5160738;27;45492;-69
2023/05/31 01:29:36;;;;;;;2.35;1.98;;;20.40;63.60;;;;;;5159613;27;45447;-68
2023/05/31 01:32:05;;;;;;;1.98;1.67;;;20.40;63.60;;;;;;5166866;27;48254;-68
2023/05/31 01:34:31;;;;;;;2.65;2.00;;;20.40;63.70;;;;;;5167482;27;45458;-68
2023/05/31 01:36:58;;;;;;;3.72;1.77;;;20.40;63.70;;;;;;5167008;27;45327;-68
2023/05/31 01:39:26;;;;;;;2.60;2.00;;;20.40;63.60;;;;;;5167784;27;45405;-69
2023/05/31 01:41:53;;;;;;;2.83;2.10;;;20.40;63.60;;;;;;5162741;27;46178;-68
2023/05/31 01:44:22;;;;;;;2.80;2.05;;;20.40;63.60;;;;;;5162726;27;45419;-68
2023/05/31 01:46:50;;;;;;;3.80;2.33;;;20.40;63.60;;;;;;5162861;27;45432;-68
2023/05/31 01:49:17;;;;;;;3.42;1.80;;;20.40;63.60;;;;;;5159546;27;45488;-68
2023/05/31 01:51:46;;;;;;;3.65;2.40;;;20.40;63.60;;;;;;5163515;27;47932;-69
2023/05/31 01:54:12;;;;;;;2.80;1.90;;;20.40;63.60;;;;;;5162452;27;45410;-69
2023/05/31 01:56:41;;;;;;;2.08;1.70;;;20.40;63.60;;;;;;5167475;27;45472;-68
2023/05/31 01:59:08;;;;;;;3.00;2.03;;;20.40;63.60;;;;;;5164743;27;45402;-69
2023/05/31 02:01:37;;;;;;;2.58;1.70;;;20.40;63.50;;;;;;5167657;27;48221;-68
2023/05/31 02:04:04;;;;;;;2.35;1.90;;;20.40;63.50;;;;;;5167459;27;45474;-68
2023/05/31 02:06:31;;;;;;;2.80;2.00;;;20.40;63.60;;;;;;5167060;27;45273;-69
2023/05/31 02:08:58;;;;;;;3.33;2.00;;;20.40;63.50;;;;;;5165752;27;45557;-68
2023/05/31 02:11:25;;;;;;;3.25;2.10;;;20.40;63.50;;;;;;5162184;27;46435;-68
2023/05/31 02:13:52;;;;;;;2.35;1.70;;;20.40;63.50;;;;;;5160967;27;45354;-68
2023/05/31 02:16:19;;;;;;;3.47;2.25;;;20.40;63.60;;;;;;5151660;27;45315;-68
2023/05/31 02:18:47;;;;;;;1.92;1.73;;;20.40;63.50;;;;;;5168028;27;45360;-68
2023/05/31 02:21:13;;;;;;;2.60;2.03;;;20.40;63.50;;;;;;5167431;27;47364;-68
2023/05/31 02:23:40;;;;;;;2.70;2.13;;;20.40;63.50;;;;;;5161252;27;46821;-68
2023/05/31 02:26:07;;;;;;;2.63;2.00;;;20.40;63.50;;;;;;5165950;27;45371;-70
2023/05/31 02:28:34;;;;;;;2.45;2.13;;;20.40;63.50;;;;;;5166730;27;45550;-69
2023/05/31 02:31:01;;;;;;;3.13;2.05;;;20.40;63.50;;;;;;5166556;27;48100;-68
2023/05/31 02:33:29;;;;;;;3.20;2.38;;;20.40;63.50;;;;;;5166417;27;45349;-68
2023/05/31 02:35:58;;;;;;;2.60;2.08;;;20.40;63.50;;;;;;5166810;27;45420;-68
2023/05/31 02:38:25;;;;;;;3.33;2.17;;;20.40;63.50;;;;;;5162715;27;45532;-68
2023/05/31 02:40:52;;;;;;;2.85;2.20;;;20.40;63.50;;;;;;5165735;27;46554;-69
2023/05/31 02:43:19;;;;;;;3.38;2.45;;;20.40;63.60;;;;;;5169989;27;45620;-68
2023/05/31 02:45:46;;;;;;;2.08;1.77;;;20.40;63.50;;;;;;5159987;27;45497;-68
2023/05/31 02:48:12;;;;;;;4.20;2.30;;;20.40;63.50;;;;;;5166835;27;45553;-69
2023/05/31 02:50:40;;;;;;;4.53;2.25;;;20.40;63.50;;;;;;5159088;27;46613;-69
2023/05/31 02:53:08;;;;;;;2.75;2.10;;;20.40;63.50;;;;;;5167122;27;45394;-68
2023/05/31 02:55:34;;;;;;;3.67;2.00;;;20.40;63.50;;;;;;5160340;27;45332;-68
2023/05/31 02:58:01;;;;;;;3.20;2.05;;;20.40;63.50;;;;;;5164526;27;45342;-68
2023/05/31 03:00:28;;;;;;;2.70;2.10;;;20.40;63.50;;;;;;5166280;27;45468;-68
2023/05/31 03:02:56;;;;;;;3.45;2.30;;;20.40;63.50;;;;;;5165865;27;45772;-69
2023/05/31 03:05:23;;;;;;;4.50;2.45;;;20.40;63.60;;;;;;5166426;27;45374;-68
2023/05/31 03:07:50;;;;;;;3.20;2.33;;;20.40;63.50;;;;;;5166660;27;45327;-69
2023/05/31 03:10:18;;;;;;;2.65;2.00;;;20.40;63.60;;;;;;5165237;27;45402;-69
2023/05/31 03:12:45;;;;;;;5.03;2.40;;;20.40;63.60;;;;;;5159159;27;45356;-68
2023/05/31 03:15:11;;;;;;;3.35;2.20;;;20.30;63.50;;;;;;5157520;27;45278;-68
2023/05/31 03:17:38;;;;;;;4.28;2.53;;;20.30;63.40;;;;;;5160039;27;45453;-68
2023/05/31 03:20:08;;;;;;;3.33;2.22;;;20.30;63.40;;;;;;5165708;27;46547;-69
2023/05/31 03:22:35;;;;;;;3.80;2.42;;;20.40;63.50;;;;;;5158047;27;45261;-68
2023/05/31 03:25:02;;;;;;;5.13;2.65;;;20.30;63.40;;;;;;5174255;27;45297;-68
2023/05/31 03:27:30;;;;;;;3.15;2.25;;;20.30;63.40;;;;;;5158288;27;45631;-68
2023/05/31 03:29:57;;;;;;;4.25;2.20;;;20.30;63.40;;;;;;5165840;27;45505;-68
2023/05/31 03:32:24;;;;;;;3.72;2.38;;;20.30;63.40;;;;;;5163979;27;45516;-68
2023/05/31 03:34:51;;;;;;;3.30;2.55;;;20.30;63.40;;;;;;5169220;27;45285;-68
2023/05/31 03:37:18;;;;;;;3.13;2.13;;;20.30;63.40;;;;;;5157559;27;45420;-69
2023/05/31 03:39:44;;;;;;;4.28;2.40;;;20.30;63.40;;;;;;5163949;27;47357;-68
2023/05/31 03:42:11;;;;;;;2.85;2.30;;;20.30;63.40;;;;;;5157254;27;45485;-68
2023/05/31 03:44:40;;;;;;;3.03;2.20;;;20.30;63.40;;;;;;5164916;27;45308;-68
2023/05/31 03:47:07;;;;;;;2.95;2.17;;;20.30;63.40;;;;;;5157186;27;45515;-68
2023/05/31 03:49:34;;;;;;;5.18;2.58;;;20.30;63.40;;;;;;5154875;27;45233;-68
2023/05/31 03:52:01;;;;;;;4.28;2.45;;;20.30;63.50;;;;;;5158087;27;45424;-68
2023/05/31 03:54:29;;;;;;;3.72;2.10;;;20.30;63.50;;;;;;5157953;27;45597;-68
2023/05/31 03:56:55;;;;;;;2.38;2.13;;;20.30;63.50;;;;;;5157903;27;45507;-68
2023/05/31 03:59:22;;;;;;;4.55;2.28;;;20.30;63.40;;;;;;5163822;27;46581;-69
2023/05/31 04:01:50;;;;;;;3.65;2.60;;;20.30;63.40;;;;;;5165386;27;45261;-68
2023/05/31 04:04:17;;;;;;;4.55;2.40;;;20.30;63.40;;;;;;5164815;27;45518;-69
2023/05/31 04:06:44;;;;;;;5.13;2.42;;;20.40;63.50;;;;;;5164464;27;45412;-68
2023/05/31 04:09:11;;;;;;;4.20;2.88;;;20.30;63.40;;;;;;5150758;27;46590;-68
2023/05/31 04:11:38;;;;;;;3.60;2.25;;;20.30;63.30;;;;;;5153108;27;46351;-68
2023/05/31 04:14:05;;;;;;;2.85;2.08;;;20.30;63.30;;;;;;5158221;27;45326;-68
2023/05/31 04:16:32;;;;;;;3.83;2.47;;;20.30;63.40;;;;;;5155119;27;45577;-68
2023/05/31 04:19:00;;;;;;;4.13;2.88;;;20.30;63.30;;;;;;5157485;27;46302;-69
2023/05/31 04:21:27;;;;;;;2.75;2.08;;;20.30;63.30;;;;;;5157605;27;45391;-69
2023/05/31 04:23:54;;;;;;;3.83;2.30;;;20.30;63.40;;;;;;5160643;27;45371;-68
2023/05/31 04:26:20;;;;;;;3.65;2.35;;;20.30;63.30;;;;;;5166026;27;45524;-68
2023/05/31 04:28:51;;;;;;;2.75;1.95;;;20.30;63.40;;;;;;5156830;27;45460;-68
2023/05/31 04:31:18;;;;;;;4.38;2.55;;;20.30;63.40;;;;;;5155009;27;45397;-68
2023/05/31 04:33:45;;;;;;;4.00;2.40;;;20.30;63.40;;;;;;5163810;27;45279;-69
2023/05/31 04:36:13;;;;;;;4.38;2.20;;;20.30;63.50;;;;;;5164770;27;45573;-69
2023/05/31 04:38:40;;;;;;;3.35;2.10;;;20.30;63.50;;;;;;5159217;27;46078;-68
2023/05/31 04:41:07;;;;;;;2.60;2.20;;;20.30;63.50;;;;;;5169460;27;45296;-69
2023/05/31 04:43:33;;;;;;;3.33;2.42;;;20.30;63.50;;;;;;5159970;27;45473;-68
2023/05/31 04:46:00;;;;;;;3.72;2.38;;;20.30;63.50;;;;;;5157209;27;45493;-68
2023/05/31 04:48:28;;;;;;;3.17;2.10;;;20.30;63.50;;;;;;5155827;27;47957;-68
2023/05/31 04:50:55;;;;;;;3.28;2.15;;;20.30;63.60;;;;;;5151649;27;45452;-68
2023/05/31 04:53:24;;;;;;;3.05;2.50;;;20.30;63.50;;;;;;5160740;27;45274;-68
2023/05/31 04:55:51;;;;;;;4.40;2.28;;;20.30;63.60;;;;;;5160778;27;45434;-68
2023/05/31 04:58:19;;;;;;;3.88;2.50;;;20.30;63.50;;;;;;5160211;27;45453;-68
2023/05/31 05:00:46;;;;;;;3.65;2.15;;;20.30;63.50;;;;;;5154416;27;45278;-69
2023/05/31 05:03:13;;;;;;;3.05;2.45;;;20.30;63.60;;;;;;5157259;27;45258;-69
2023/05/31 05:05:40;;;;;;;3.28;2.30;;;20.30;63.60;;;;;;5157300;27;45582;-68
2023/05/31 05:08:07;;;;;;;3.63;2.20;;;20.30;63.60;;;;;;5162398;27;47524;-68
2023/05/31 05:10:35;;;;;;;4.05;2.05;;;20.30;63.60;;;;;;5164540;27;45543;-69
2023/05/31 05:13:02;;;;;;;3.17;2.50;;;20.30;63.60;;;;;;5157055;27;45496;-68
2023/05/31 05:15:28;;;;;;;4.72;2.58;;;20.30;63.60;;;;;;5158342;27;45455;-69
2023/05/31 05:17:55;;;;;;;3.78;2.53;;;20.30;63.60;;;;;;5161787;27;47537;-69
2023/05/31 05:20:23;;;;;;;2.63;2.17;;;20.30;63.50;;;;;;5157477;27;45513;-69
2023/05/31 05:22:52;;;;;;;4.60;2.47;;;20.30;63.50;;;;;;5158901;27;45516;-69
2023/05/31 05:25:20;;;;;;;4.05;2.55;;;20.30;63.50;;;;;;5163115;27;45265;-69
2023/05/31 05:27:48;;;;;;;3.97;2.30;;;20.30;63.40;;;;;;5161972;27;47138;-69
2023/05/31 05:30:15;;;;;;;4.07;2.40;;;20.30;63.40;;;;;;5167888;27;45311;-69
2023/05/31 05:32:42;;;;;;;4.60;2.38;;;20.30;63.30;;;;;;5163840;27;45389;-68
2023/05/31 05:35:09;;;;;;;3.80;2.63;;;20.30;63.30;;;;;;5159347;27;45544;-68
2023/05/31 05:37:36;;;;;;;4.10;2.65;;;20.30;63.50;;;;;;5161447;27;46406;-69
2023/05/31 05:40:06;;;;;;;2.70;2.25;;;20.30;63.60;;;;;;5165130;27;45389;-69
2023/05/31 05:42:36;;;;;;;4.10;2.33;;;20.30;63.90;;;;;;5158462;27;45516;-69
2023/05/31 05:45:05;;;;;;;3.30;2.33;;;20.30;63.80;;;;;;5161099;27;45477;-68
2023/05/31 05:47:32;;;;;;;6.53;2.70;;;20.30;64.30;;;;;;5167394;27;47511;-69
2023/05/31 05:49:58;;;;;;;3.42;2.45;;;20.30;64.50;;;;;;5158677;27;45460;-68
2023/05/31 05:52:25;;;;;;;2.90;2.13;;;20.30;64.70;;;;;;5166055;27;45524;-68
2023/05/31 05:54:52;;;;;;;3.70;2.60;;;20.40;65.10;;;;;;5167121;27;45589;-69
2023/05/31 05:57:20;;;;;;;4.32;2.25;;;20.30;65.40;;;;;;5160385;27;45299;-69
2023/05/31 05:59:48;;;;;;;5.50;2.65;;;20.40;65.70;;;;;;5164982;27;45319;-69
2023/05/31 06:02:16;;;;;;;3.88;2.50;;;20.40;65.80;;;;;;5170360;27;45321;-69
2023/05/31 06:04:43;;;;;;;5.10;2.28;;;20.40;65.90;;;;;;5159207;27;45439;-69
2023/05/31 06:07:10;;;;;;;5.03;2.50;;;20.40;65.80;;;;;;5158077;27;45414;-68
2023/05/31 06:09:37;;;;;;;3.47;2.17;;;20.40;65.80;;;;;;5162840;27;46501;-69
2023/05/31 06:12:04;;;;;;;3.20;2.45;;;20.40;66.00;;;;;;5160325;27;45429;-69
2023/05/31 06:14:30;;;;;;;3.72;2.20;;;20.40;65.90;;;;;;5158698;27;45266;-69
2023/05/31 06:16:57;;;;;;;5.22;2.60;;;20.40;65.60;;;;;;5166681;27;45390;-69
2023/05/31 06:19:25;;;;;;;3.88;2.33;;;20.40;65.90;;;;;;5157709;27;45353;-68
2023/05/31 06:21:53;;;;;;;3.15;2.20;;;20.40;66.30;;;;;;5166551;27;45360;-68
2023/05/31 06:24:20;;;;;;;5.07;2.80;;;20.40;66.30;;;;;;5166280;27;45452;-68
2023/05/31 06:26:47;;;;;;;4.13;2.30;;;20.40;66.30;;;;;;5162194;27;47033;-68
2023/05/31 06:29:14;;;;;;;3.42;2.17;;;20.40;66.40;;;;;;5166229;27;45361;-69
2023/05/31 06:31:42;;;;;;;4.75;2.08;;;20.40;66.20;;;;;;5160818;27;45437;-69
2023/05/31 06:34:09;;;;;;;3.53;1.95;;;20.40;66.30;;;;;;5161956;27;45479;-69
2023/05/31 06:36:37;;;;;;;4.03;2.03;;;20.50;66.10;;;;;;5152803;27;48775;-69
2023/05/31 06:39:04;;;;;;;2.97;1.90;;;20.50;65.80;;;;;;5157627;27;45528;-69
2023/05/31 06:41:34;;;;;;;3.80;2.00;;;20.40;65.90;;;;;;5152067;27;45481;-69
2023/05/31 06:44:01;;;;;;;2.70;2.08;;;20.50;66.20;;;;;;5161920;27;45651;-69
2023/05/31 06:46:28;;;;;;;2.85;2.20;;;20.40;66.10;;;;;;5159852;27;47528;-69
2023/05/31 06:48:55;;;;;;;2.65;2.05;;;20.40;66.10;;;;;;5165316;27;45364;-69
2023/05/31 06:51:22;;;;;;;3.85;1.90;;;20.40;66.30;;;;;;5157570;27;45518;-69
2023/05/31 06:53:50;;;;;;;3.45;1.98;;;20.40;66.20;;;;;;5166186;27;45429;-68
2023/05/31 06:56:17;;;;;;;4.78;1.92;;;20.40;66.30;;;;;;5163884;27;46325;-69
2023/05/31 06:58:45;;;;;;;4.18;2.28;;;20.40;66.30;;;;;;5154642;27;45397;-70
2023/05/31 07:01:12;;;;;;;3.67;1.80;;;20.40;66.30;;;;;;5160677;27;45346;-69
2023/05/31 07:03:39;;;;;;;2.75;1.70;;;20.40;66.40;;;;;;5166304;27;45339;-68
2023/05/31 07:06:06;;;;;;;2.55;1.73;;;20.40;66.40;;;;;;5166537;27;47665;-69
2023/05/31 07:08:33;;;;;;;3.80;1.73;;;20.40;66.40;;;;;;5166568;27;45394;-68
2023/05/31 07:11:01;;;;;;;2.92;1.90;;;20.40;66.50;;;;;;5166321;27;45319;-69
2023/05/31 07:13:28;;;;;;;1.75;1.40;;;20.40;66.30;;;;;;5162219;27;45303;-69
2023/05/31 07:15:55;;;;;;;5.05;1.73;;;20.40;66.30;;;;;;5160384;27;46087;-69
2023/05/31 07:18:22;;;;;;;2.17;1.70;;;20.40;66.30;;;;;;5160678;27;45549;-68
2023/05/31 07:20:48;;;;;;;2.75;1.75;;;20.40;66.10;;;;;;5166682;27;45480;-69
2023/05/31 07:23:15;;;;;;;2.40;1.70;;;20.40;66.10;;;;;;5166284;27;45352;-69
2023/05/31 07:25:42;;;;;;;2.00;1.42;;;20.50;66.20;;;;;;5166180;27;47144;-68
2023/05/31 07:28:10;;;;;;;3.10;2.05;;;20.50;66.20;;;;;;5165698;27;45252;-69
2023/05/31 07:30:37;;;;;;;2.55;1.38;;;20.50;66.10;;;;;;5160282;27;45441;-69
2023/05/31 07:33:04;;;;;;;2.67;1.63;;;20.50;66.20;;;;;;5166418;27;45285;-68
2023/05/31 07:35:31;;;;;;;2.13;1.60;;;20.50;66.10;;;;;;5158994;27;46262;-69
2023/05/31 07:37:58;;;;;;;2.50;1.70;;;20.50;66.20;;;;;;5165828;27;45539;-69
2023/05/31 07:40:25;;;;;;;2.38;1.55;;;20.50;66.10;;;;;;5166317;27;45509;-69
2023/05/31 07:42:52;;;;;;;1.90;1.40;;;20.50;66.20;;;;;;5165709;27;45606;-69
2023/05/31 07:45:20;;;;;;;2.78;1.50;;;20.50;66.10;;;;;;5164190;27;47203;-68
2023/05/31 07:47:47;;;;;;;2.83;1.60;;;20.50;66.00;;;;;;5165861;27;45336;-68
2023/05/31 07:50:14;;;;;;;2.53;1.60;;;20.50;65.90;;;;;;5158574;27;45385;-69
2023/05/31 07:52:40;;;;;;;2.58;1.85;;;20.40;65.70;;;;;;5163955;27;45315;-69
2023/05/31 07:55:08;;;;;;;4.78;1.70;;;20.40;65.60;;;;;;5165633;27;48305;-69
2023/05/31 07:57:35;;;;;;;4.10;1.73;;;20.40;65.50;;;;;;5162356;27;45375;-69
2023/05/31 08:00:02;;;;;;;3.45;1.30;;;20.40;65.40;;;;;;5161307;27;45406;-69
2023/05/31 08:02:30;;;;;;;3.83;1.70;;;20.40;65.40;;;;;;5165903;27;45265;-68
2023/05/31 08:05:01;;;;;;;2.47;1.60;;;20.40;65.60;;;;;;5165721;27;48048;-69
2023/05/31 08:07:28;;;;;;;2.78;1.40;;;20.40;65.70;;;;;;5162269;27;45286;-69
2023/05/31 08:09:55;;;;;;;2.72;1.70;;;20.50;66.00;;;;;;5160983;27;45487;-70
2023/05/31 08:12:21;;;;;;;3.17;1.63;;;20.50;66.00;;;;;;5165511;27;45421;-69
2023/05/31 08:14:48;;;;;;;2.92;1.65;;;20.50;66.10;;;;;;5163971;27;47391;-69
2023/05/31 08:17:15;;;;;;;2.15;1.42;;;20.50;66.10;;;;;;5165092;27;45416;-69
2023/05/31 08:19:43;;;;;;;3.35;1.50;;;20.50;66.00;;;;;;5165926;27;45424;-69
2023/05/31 08:22:10;;;;;;;3.17;1.60;;;20.50;66.00;;;;;;5164487;27;45514;-69
2023/05/31 08:24:37;;;;;;;2.00;1.30;;;20.50;66.10;;;;;;5164891;27;47194;-69
2023/05/31 08:27:05;;;;;;;1.60;1.30;;;20.50;66.20;;;;;;5160932;27;45365;-69
2023/05/31 08:29:32;;;;;;;1.63;1.30;;;20.50;66.30;;;;;;5165109;27;45400;-70
2023/05/31 08:31:58;;;;;;;2.35;1.40;;;20.50;66.20;;;;;;5165130;27;45467;-70
2023/05/31 08:34:25;;;;;;;4.18;1.30;;;20.50;66.30;;;;;;5165061;27;46641;-69
2023/05/31 08:36:54;;;;;;;3.13;1.88;;;20.50;66.40;;;;;;5158246;27;45313;-69
2023/05/31 08:39:21;;;;;;;2.65;1.42;;;20.50;66.40;;;;;;5163609;27;45306;-69
2023/05/31 08:41:53;;;;;;;2.55;1.50;;;20.50;66.40;;;;;;5161897;27;45580;-69
2023/05/31 08:44:21;;;;;;;3.20;1.67;;;20.50;66.40;;;;;;5166126;27;46568;-69
2023/05/31 08:46:49;;;;;;;2.80;1.45;;;20.50;66.50;;;;;;5164593;27;45526;-70
2023/05/31 08:49:16;;;;;;;1.40;1.05;;;20.60;66.60;;;;;;5165091;27;45240;-69
2023/05/31 08:51:46;;;;;;;2.63;1.40;;;20.60;66.80;;;;;;5158070;27;45478;-69
2023/05/31 08:54:14;;;;;;;3.05;1.50;;;20.60;66.80;;;;;;5159907;27;46419;-69
2023/05/31 08:56:42;;;;;;;3.15;1.20;;;20.50;66.60;;;;;;5164782;27;45201;-69
2023/05/31 08:59:11;;;;;;;1.67;1.17;;;20.60;66.70;;;;;;5162599;27;45320;-69
2023/05/31 09:01:39;;;;;;;1.20;1.10;;;20.50;66.50;;;;;;5165262;27;45552;-69
2023/05/31 09:04:06;;;;;;;2.00;1.20;;;20.60;66.40;;;;;;5166141;27;46074;-69
2023/05/31 09:06:34;;;;;;;2.15;1.25;;;20.50;66.40;;;;;;5155682;27;45270;-69
2023/05/31 09:09:01;;;;;;;2.33;1.40;;;20.60;66.70;;;;;;5165004;27;45345;-69
2023/05/31 09:11:29;;;;;;;3.42;1.50;;;20.50;66.70;;;;;;5164820;27;45348;-69
2023/05/31 09:13:56;;;;;;;1.50;1.10;;;20.60;66.70;;;;;;5164346;27;47855;-69
2023/05/31 09:16:24;;;;;;;1.38;1.20;;;20.60;66.70;;;;;;5162936;27;45347;-69
2023/05/31 09:19:01;;;;;;;1.65;1.20;;;20.60;66.50;;;;;;5162832;27;45352;-69
2023/05/31 09:21:27;;;;;;;2.40;1.60;;;20.60;66.50;;;;;;5161703;27;45414;-69
2023/05/31 09:23:55;;;;;;;1.90;1.15;;;20.60;66.40;;;;;;5164616;27;47016;-70
2023/05/31 09:26:23;;;;;;;1.20;0.98;;;20.60;66.50;;;;;;5166680;27;45316;-69
2023/05/31 09:28:51;;;;;;;2.50;1.30;;;20.60;66.50;;;;;;5168569;27;45499;-69
2023/05/31 09:31:18;;;;;;;1.30;1.10;;;20.60;66.40;;;;;;5168227;27;45441;-69
2023/05/31 09:33:47;;;;;;;2.05;1.10;;;20.60;66.30;;;;;;5159684;27;46336;-69
2023/05/31 09:36:15;;;;;;;2.30;1.27;;;20.60;66.30;;;;;;5166027;27;45494;-69
2023/05/31 09:38:42;;;;;;;1.35;1.20;;;20.60;66.40;;;;;;5167985;27;45339;-69
2023/05/31 09:41:13;;;;;;;1.90;1.10;;;20.60;66.30;;;;;;5168177;27;45530;-70
2023/05/31 09:43:40;;;;;;;1.88;1.40;;;20.60;66.40;;;;;;5166717;27;47549;-70
2023/05/31 09:46:13;;;;;;;2.20;0.95;;;20.60;66.30;;;;;;5167516;27;46065;-70
2023/05/31 09:48:40;;;;;;;2.55;1.33;;;20.60;66.50;;;;;;5160706;27;45468;-69
2023/05/31 09:51:08;;;;;;;2.08;1.30;;;20.60;66.50;;;;;;5163965;27;45484;-70
2023/05/31 09:53:39;;;;;;;2.55;1.10;;;20.60;66.40;;;;;;5159468;27;46616;-70
2023/05/31 09:56:10;;;;;;;2.58;1.60;;;20.60;66.30;;;;;;5167922;27;45372;-70
2023/05/31 09:58:36;;;;;;;2.00;1.10;;;20.60;66.40;;;;;;5164972;27;45277;-70
2023/05/31 10:01:03;;;;;;;2.42;1.15;;;20.60;66.30;;;;;;5166042;27;45460;-70
2023/05/31 10:03:33;;;;;;;3.78;1.40;;;20.60;66.40;;;;;;5167431;27;45321;-70
2023/05/31 10:06:00;;;;;;;1.55;1.05;;;20.60;66.30;;;;;;5167720;27;45416;-69
2023/05/31 10:08:28;;;;;;;1.60;1.30;;;20.60;66.30;;;;;;5156341;27;45419;-70
2023/05/31 10:10:56;;;;;;;2.13;1.10;;;20.60;66.30;;;;;;5162379;27;45459;-69
2023/05/31 10:13:26;;;;;;;2.38;1.20;;;20.60;66.30;;;;;;5167322;27;46266;-70
2023/05/31 10:15:56;;;;;;;1.83;1.38;;;20.60;66.40;;;;;;5167141;27;45324;-70
2023/05/31 10:18:28;;;;;;;2.60;1.20;;;20.60;66.50;;;;;;5166894;27;45408;-70
2023/05/31 10:21:00;;;;;;;1.45;1.10;;;20.60;66.40;;;;;;5167691;27;45641;-70
2023/05/31 10:23:27;;;;;;;2.92;1.50;;;20.60;66.30;;;;;;5167016;27;46272;-71
2023/05/31 10:26:05;;;;;;;1.52;0.93;;;20.60;66.10;;;;;;5167124;27;45273;-70
2023/05/31 10:28:37;;;;;;;1.83;1.15;;;20.60;66.00;;;;;;5167009;27;45393;-70
2023/05/31 10:31:05;;;;;;;2.33;1.17;;;20.70;66.00;;;;;;5166163;27;45457;-70
2023/05/31 10:33:32;;;;;;;2.95;1.10;;;20.60;65.70;;;;;;5162046;27;47215;-70
2023/05/31 10:36:01;;;;;;;1.13;0.73;;;20.60;65.60;;;;;;5166914;27;45495;-70
2023/05/31 10:38:33;;;;;;;4.65;1.40;;;20.60;65.50;;;;;;5165895;27;45347;-70
2023/05/31 10:41:06;;;;;;;1.65;1.00;;;20.60;65.40;;;;;;5163472;27;45540;-70
2023/05/31 10:43:39;;;;;;;1.77;0.80;;;20.60;65.40;;;;;;5163926;27;45498;-70
2023/05/31 10:46:10;;;;;;;1.48;0.98;;;20.60;65.30;;;;;;5166478;27;45456;-70
2023/05/31 10:48:45;;;;;;;2.35;1.08;;;20.60;65.30;;;;;;5165779;27;45337;-70
2023/05/31 10:51:16;;;;;;;1.73;0.90;;;20.60;65.20;;;;;;5159361;27;45531;-70
2023/05/31 10:53:45;;;;;;;1.10;0.80;;;20.60;65.20;;;;;;5167218;27;45299;-70
2023/05/31 10:56:14;;;;;;;4.55;1.17;;;20.60;65.10;;;;;;5165965;27;45286;-70
2023/05/31 10:58:43;;;;;;;2.08;1.00;;;20.60;65.10;;;;;;5160077;27;45284;-70
2023/05/31 11:01:13;;;;;;;2.10;0.95;;;20.60;65.10;;;;;;5165553;27;45643;-70
2023/05/31 11:03:46;;;;;;;2.53;1.05;;;20.60;65.00;;;;;;5166042;27;48136;-70
2023/05/31 11:06:15;;;;;;;1.23;0.88;;;20.60;64.90;;;;;;5165679;27;45297;-70
2023/05/31 11:08:58;;;;;;;2.45;1.42;;;20.60;64.80;;;;;;5166807;27;45478;-70
2023/05/31 11:11:29;;;;;;;1.88;1.02;;;20.60;64.80;;;;;;5166891;27;45340;-69
2023/05/31 11:13:57;;;;;;;1.45;0.90;;;20.60;64.70;;;;;;5166544;27;46090;-70
2023/05/31 11:16:24;;;;;;;1.42;1.00;;;20.60;64.70;;;;;;5164338;27;45346;-70
2023/05/31 11:19:03;;;;;;;1.92;0.90;;;20.70;64.80;;;;;;5175386;27;45527;-70
2023/05/31 11:21:48;;;;;;;1.45;1.00;;;20.60;64.70;;;;;;5166751;27;45477;-70
2023/05/31 11:24:27;;;;;;;1.50;1.00;;;20.60;64.70;;;;;;5165826;27;48383;-70
2023/05/31 11:26:54;;;;;;;2.53;1.23;;;20.60;64.50;;;;;;5166196;27;45327;-70
2023/05/31 11:29:21;;;;;;;2.05;0.80;;;20.60;64.50;;;;;;5165406;27;45507;-70
2023/05/31 11:31:59;;;;;;;3.53;1.30;;;20.60;64.20;;;;;;5156884;27;45611;-70
2023/05/31 11:34:28;;;;;;;1.50;0.93;;;20.60;64.20;;;;;;5158925;27;47764;-70
2023/05/31 11:36:58;;;;;;;2.25;1.10;;;20.70;64.20;;;;;;5166098;27;45377;-70
2023/05/31 11:39:26;;;;;;;2.53;1.00;;;20.60;64.10;;;;;;5166426;27;45460;-70
2023/05/31 11:41:54;;;;;;;2.67;1.20;;;20.70;64.10;;;;;;5165743;27;45800;-70
2023/05/31 11:44:27;;;;;;;2.20;1.23;;;20.70;64.00;;;;;;5156968;27;45505;-70
2023/05/31 11:47:01;;;;;;;2.50;1.17;;;20.70;63.80;;;;;;5159003;27;45791;-70
2023/05/31 11:49:28;;;;;;;1.58;0.82;;;20.70;63.70;;;;;;5156598;27;45494;-70
2023/05/31 11:51:57;;;;;;;1.73;0.90;;;20.70;63.80;;;;;;5159212;27;45367;-70
2023/05/31 11:54:29;;;;;;;3.72;1.23;;;20.70;63.60;;;;;;5165047;27;46996;-70
2023/05/31 11:56:59;;;;;;;2.30;1.20;;;20.70;63.60;;;;;;5163935;27;45382;-70
2023/05/31 11:59:27;;;;;;;1.98;1.00;;;20.60;63.50;;;;;;5162600;27;45421;-70
2023/05/31 12:01:59;;;;;;;1.67;1.10;;;20.70;63.50;;;;;;5157124;27;45445;-70
2023/05/31 12:04:33;;;;;;;1.40;0.88;;;20.70;63.50;;;;;;5165025;27;48174;-70
2023/05/31 12:07:01;;;;;;;1.90;0.95;;;20.60;64.70;;;;;;5156198;27;45400;-71
2023/05/31 12:09:29;;;;;;;2.60;1.13;;;20.70;63.50;;;;;;5167193;27;45378;-70
2023/05/31 12:11:56;;;;;;;1.80;1.27;;;20.60;63.40;;;;;;5165917;27;45256;-70
2023/05/31 12:14:24;;;;;;;1.30;1.10;;;20.70;63.40;;;;;;5157087;27;48634;-70
2023/05/31 12:16:51;;;;;;;1.58;0.95;;;20.60;63.30;;;;;;5162797;27;45765;-70
2023/05/31 12:19:18;;;;;;;1.30;0.90;;;20.60;63.10;;;;;;5165750;27;45232;-70
2023/05/31 12:21:46;;;;;;;1.85;0.90;;;20.60;63.30;;;;;;5165534;27;45554;-70
2023/05/31 12:24:15;;;;;;;2.45;1.00;;;20.70;63.50;;;;;;5164652;27;48559;-70
2023/05/31 12:26:44;;;;;;;1.60;0.88;;;20.60;63.50;;;;;;5164368;27;45398;-71
2023/05/31 12:29:11;;;;;;;1.40;1.00;;;20.60;63.50;;;;;;5161458;27;45405;-70
2023/05/31 12:31:39;;;;;;;1.65;0.80;;;20.70;63.50;;;;;;5163660;27;45308;-70
2023/05/31 12:34:10;;;;;;;2.45;1.10;;;20.70;63.60;;;;;;5161617;27;47430;-70
2023/05/31 12:36:45;;;;;;;1.27;0.95;;;20.70;64.10;;;;;;5156802;27;45373;-70
2023/05/31 12:39:16;;;;;;;1.63;1.02;;;20.70;63.60;;;;;;5158000;27;45437;-70
2023/05/31 12:41:43;;;;;;;1.45;1.02;;;20.70;63.50;;;;;;5159017;27;45396;-70
2023/05/31 12:44:12;;;;;;;1.00;0.80;;;20.70;63.40;;;;;;5160564;27;48424;-70
2023/05/31 12:46:40;;;;;;;0.82;0.75;;;20.70;63.40;;;;;;5163875;27;45438;-70
2023/05/31 12:49:15;;;;;;;1.70;1.00;;;20.70;63.40;;;;;;5161399;27;45389;-70
2023/05/31 12:51:43;;;;;;;0.95;0.82;;;20.70;63.20;;;;;;5158373;27;45497;-70